SSJ247 UNTT-UNSS
Flight info
| Callsign | SSJ247 |
|---|---|
| Flight time | 1h 25m |
| Altitude | 16000 |
| Route | SP1H SP A307 TEBTO TEBTO1E |
| Aircraft | AT75/M-SDFGIRY/S |
Departure
| Time | 2026-05-06 10:04 |
|---|---|
| Airport | Tomsk Kamov Airport (UNTT) |
Arrival
| Time | 2026-05-06 11:29 |
|---|---|
| Airport | Strezhevoy Airport (UNSS) |
| Time | Latitude | Longitude | Altitude | Speed | Heading |
|---|---|---|---|---|---|
| 2026-05-06 10:02 | 56.38951 | 85.21518 | 565 ft | 0 kts | 123° |
| 2026-05-06 10:03 | 56.38905 | 85.21636 | 571 ft | 16 kts | 124° |
| 2026-05-06 10:03 | 56.38839 | 85.21670 | 563 ft | 0 kts | 212° |
| 2026-05-06 10:03 | 56.38793 | 85.21616 | 568 ft | 28 kts | 213° |
| 2026-05-06 10:03 | 56.38475 | 85.21239 | 567 ft | 82 kts | 213° |
| 2026-05-06 10:04 | 56.37849 | 85.20500 | 574 ft | 130 kts | 212° |
| 2026-05-06 10:04 | 56.37029 | 85.19605 | 907 ft | 146 kts | 208° |
| 2026-05-06 10:04 | 56.36081 | 85.18830 | 1443 ft | 152 kts | 193° |
| 2026-05-06 10:04 | 56.34979 | 85.19237 | 1678 ft | 183 kts | 140° |
| 2026-05-06 10:05 | 56.34555 | 85.21354 | 2106 ft | 199 kts | 83° |
| 2026-05-06 10:05 | 56.35433 | 85.23413 | 2125 ft | 226 kts | 27° |
| 2026-05-06 10:05 | 56.36995 | 85.24080 | 2319 ft | 236 kts | 2° |
| 2026-05-06 10:05 | 56.38668 | 85.24189 | 2580 ft | 242 kts | 2° |
| 2026-05-06 10:06 | 56.40339 | 85.23983 | 2840 ft | 244 kts | 340° |
| 2026-05-06 10:06 | 56.41706 | 85.22224 | 3113 ft | 249 kts | 306° |
| 2026-05-06 10:06 | 56.42335 | 85.19328 | 3298 ft | 252 kts | 272° |
| 2026-05-06 10:06 | 56.41971 | 85.16282 | 3469 ft | 252 kts | 239° |
| 2026-05-06 10:07 | 56.40727 | 85.14150 | 3810 ft | 247 kts | 206° |
| 2026-05-06 10:07 | 56.39060 | 85.13664 | 4189 ft | 245 kts | 173° |
| 2026-05-06 10:07 | 56.37533 | 85.14970 | 4566 ft | 248 kts | 139° |
| 2026-05-06 10:07 | 56.36675 | 85.17631 | 4936 ft | 254 kts | 106° |
| 2026-05-06 10:08 | 56.36763 | 85.20819 | 5321 ft | 260 kts | 72° |
| 2026-05-06 10:08 | 56.37789 | 85.23493 | 5706 ft | 263 kts | 38° |
| 2026-05-06 10:08 | 56.39432 | 85.24846 | 6081 ft | 261 kts | 5° |
| 2026-05-06 10:08 | 56.41200 | 85.24678 | 6468 ft | 253 kts | 346° |
| 2026-05-06 10:09 | 56.42848 | 85.23873 | 6847 ft | 245 kts | 324° |
| 2026-05-06 10:09 | 56.44007 | 85.21825 | 7222 ft | 232 kts | 304° |
| 2026-05-06 10:09 | 56.45341 | 85.20137 | 7588 ft | 247 kts | 338° |
| 2026-05-06 10:09 | 56.47097 | 85.20137 | 7964 ft | 261 kts | 13° |
| 2026-05-06 10:10 | 56.48805 | 85.21389 | 8340 ft | 266 kts | 20° |
| 2026-05-06 10:10 | 56.50559 | 85.22462 | 8678 ft | 267 kts | 11° |
| 2026-05-06 10:10 | 56.52342 | 85.23221 | 9009 ft | 263 kts | 1° |
| 2026-05-06 10:10 | 56.54104 | 85.22725 | 9364 ft | 256 kts | 329° |
| 2026-05-06 10:11 | 56.55375 | 85.20656 | 9721 ft | 240 kts | 297° |
| 2026-05-06 10:11 | 56.56349 | 85.18255 | 10064 ft | 242 kts | 316° |
| 2026-05-06 10:11 | 56.57952 | 85.17139 | 10413 ft | 256 kts | 347° |
| 2026-05-06 10:11 | 56.59631 | 85.16331 | 10763 ft | 240 kts | 325° |
| 2026-05-06 10:12 | 56.61053 | 85.14852 | 11112 ft | 234 kts | 323° |
| 2026-05-06 10:12 | 56.62463 | 85.13413 | 11460 ft | 231 kts | 326° |
| 2026-05-06 10:12 | 56.63927 | 85.12134 | 11720 ft | 234 kts | 329° |
| 2026-05-06 10:12 | 56.65438 | 85.10977 | 11836 ft | 236 kts | 331° |
| 2026-05-06 10:13 | 56.66944 | 85.09871 | 12089 ft | 237 kts | 330° |
| 2026-05-06 10:13 | 56.68468 | 85.08728 | 12343 ft | 237 kts | 330° |
| 2026-05-06 10:13 | 56.69987 | 85.07547 | 12564 ft | 238 kts | 329° |
| 2026-05-06 10:13 | 56.71503 | 85.06369 | 12721 ft | 238 kts | 330° |
| 2026-05-06 10:14 | 56.73032 | 85.05171 | 12933 ft | 240 kts | 330° |
| 2026-05-06 10:14 | 56.74573 | 85.03979 | 13145 ft | 241 kts | 330° |
| 2026-05-06 10:14 | 56.76114 | 85.02785 | 13357 ft | 242 kts | 330° |
| 2026-05-06 10:14 | 56.77667 | 85.01577 | 13564 ft | 243 kts | 330° |
| 2026-05-06 10:15 | 56.79225 | 85.00360 | 13769 ft | 244 kts | 330° |
| 2026-05-06 10:15 | 56.80784 | 84.99138 | 13979 ft | 245 kts | 330° |
| 2026-05-06 10:15 | 56.82385 | 84.97880 | 14189 ft | 246 kts | 330° |
| 2026-05-06 10:15 | 56.83936 | 84.96670 | 14387 ft | 247 kts | 330° |
| 2026-05-06 10:16 | 56.85500 | 84.95449 | 14588 ft | 247 kts | 330° |
| 2026-05-06 10:16 | 56.87092 | 84.94206 | 14774 ft | 248 kts | 330° |
| 2026-05-06 10:16 | 56.88679 | 84.92962 | 14947 ft | 249 kts | 330° |
| 2026-05-06 10:16 | 56.90287 | 84.91700 | 15127 ft | 251 kts | 331° |
| 2026-05-06 10:17 | 56.91877 | 84.90452 | 15321 ft | 251 kts | 330° |
| 2026-05-06 10:17 | 56.93506 | 84.89184 | 15463 ft | 252 kts | 331° |
| 2026-05-06 10:17 | 56.95110 | 84.87928 | 15639 ft | 252 kts | 330° |
| 2026-05-06 10:17 | 56.96737 | 84.86644 | 15847 ft | 253 kts | 330° |
| 2026-05-06 10:18 | 56.98347 | 84.85372 | 16050 ft | 256 kts | 331° |
| 2026-05-06 10:18 | 56.99994 | 84.84077 | 16273 ft | 255 kts | 331° |
| 2026-05-06 10:18 | 57.01632 | 84.82783 | 16466 ft | 257 kts | 331° |
| 2026-05-06 10:18 | 57.03270 | 84.81485 | 16601 ft | 258 kts | 331° |
| 2026-05-06 10:19 | 57.04923 | 84.80178 | 16786 ft | 258 kts | 331° |
| 2026-05-06 10:19 | 57.06562 | 84.78872 | 16921 ft | 260 kts | 331° |
| 2026-05-06 10:19 | 57.08227 | 84.77562 | 17101 ft | 260 kts | 331° |
| 2026-05-06 10:19 | 57.09885 | 84.76248 | 17233 ft | 260 kts | 331° |
| 2026-05-06 10:20 | 57.11539 | 84.74932 | 17355 ft | 261 kts | 332° |
| 2026-05-06 10:20 | 57.13210 | 84.73580 | 17480 ft | 260 kts | 328° |
| 2026-05-06 10:20 | 57.14695 | 84.71787 | 17588 ft | 256 kts | 317° |
| 2026-05-06 10:20 | 57.16074 | 84.69681 | 17692 ft | 256 kts | 315° |
| 2026-05-06 10:21 | 57.17438 | 84.67544 | 17806 ft | 257 kts | 315° |
| 2026-05-06 10:21 | 57.18823 | 84.65431 | 17918 ft | 258 kts | 316° |
| 2026-05-06 10:21 | 57.20230 | 84.63376 | 18027 ft | 258 kts | 317° |
| 2026-05-06 10:21 | 57.21646 | 84.61342 | 18116 ft | 259 kts | 317° |
| 2026-05-06 10:22 | 57.23063 | 84.59293 | 18216 ft | 261 kts | 317° |
| 2026-05-06 10:22 | 57.24502 | 84.57222 | 18330 ft | 261 kts | 317° |
| 2026-05-06 10:22 | 57.25938 | 84.55139 | 18421 ft | 262 kts | 317° |
| 2026-05-06 10:22 | 57.27357 | 84.53072 | 18512 ft | 262 kts | 317° |
| 2026-05-06 10:23 | 57.28796 | 84.50970 | 18610 ft | 263 kts | 317° |
| 2026-05-06 10:23 | 57.30217 | 84.48891 | 18706 ft | 263 kts | 317° |
| 2026-05-06 10:23 | 57.31667 | 84.46767 | 18798 ft | 264 kts | 317° |
| 2026-05-06 10:23 | 57.33094 | 84.44676 | 18888 ft | 264 kts | 317° |
| 2026-05-06 10:24 | 57.34532 | 84.42573 | 18973 ft | 265 kts | 317° |
| 2026-05-06 10:24 | 57.35989 | 84.40434 | 19052 ft | 265 kts | 317° |
| 2026-05-06 10:24 | 57.37432 | 84.38313 | 19149 ft | 266 kts | 317° |
| 2026-05-06 10:24 | 57.38890 | 84.36169 | 19233 ft | 266 kts | 317° |
| 2026-05-06 10:25 | 57.40336 | 84.34039 | 19311 ft | 267 kts | 317° |
| 2026-05-06 10:25 | 57.41782 | 84.31903 | 19378 ft | 268 kts | 317° |
| 2026-05-06 10:25 | 57.43256 | 84.29729 | 19461 ft | 268 kts | 317° |
| 2026-05-06 10:25 | 57.44710 | 84.27581 | 19539 ft | 269 kts | 317° |
| 2026-05-06 10:26 | 57.46181 | 84.25404 | 19617 ft | 269 kts | 317° |
| 2026-05-06 10:26 | 57.47636 | 84.23246 | 19680 ft | 270 kts | 318° |
| 2026-05-06 10:26 | 57.49114 | 84.21063 | 19745 ft | 270 kts | 318° |
| 2026-05-06 10:26 | 57.50578 | 84.18895 | 19819 ft | 271 kts | 318° |
| 2026-05-06 10:27 | 57.52040 | 84.16724 | 19890 ft | 271 kts | 317° |
| 2026-05-06 10:27 | 57.53527 | 84.14516 | 19955 ft | 272 kts | 317° |
| 2026-05-06 10:27 | 57.54998 | 84.12325 | 20017 ft | 272 kts | 318° |
| 2026-05-06 10:27 | 57.56480 | 84.10111 | 20087 ft | 273 kts | 318° |
| 2026-05-06 10:28 | 57.57954 | 84.07915 | 20161 ft | 273 kts | 318° |
| 2026-05-06 10:28 | 57.59448 | 84.05684 | 20223 ft | 274 kts | 318° |
| 2026-05-06 10:28 | 57.60941 | 84.03457 | 20281 ft | 274 kts | 318° |
| 2026-05-06 10:28 | 57.62423 | 84.01243 | 20327 ft | 274 kts | 318° |
| 2026-05-06 10:29 | 57.63908 | 83.99027 | 20372 ft | 275 kts | 318° |
| 2026-05-06 10:29 | 57.65409 | 83.96771 | 20429 ft | 275 kts | 318° |
| 2026-05-06 10:29 | 57.66879 | 83.94559 | 20492 ft | 275 kts | 317° |
| 2026-05-06 10:29 | 57.68389 | 83.92287 | 20552 ft | 276 kts | 318° |
| 2026-05-06 10:30 | 57.69869 | 83.90053 | 20621 ft | 274 kts | 317° |
| 2026-05-06 10:30 | 57.71376 | 83.87796 | 20646 ft | 276 kts | 318° |
| 2026-05-06 10:30 | 57.72862 | 83.85570 | 20684 ft | 276 kts | 317° |
| 2026-05-06 10:30 | 57.74352 | 83.83272 | 20705 ft | 276 kts | 317° |
| 2026-05-06 10:31 | 57.75849 | 83.80987 | 20755 ft | 277 kts | 317° |
| 2026-05-06 10:31 | 57.77332 | 83.78739 | 20794 ft | 277 kts | 317° |
| 2026-05-06 10:31 | 57.78839 | 83.76456 | 20849 ft | 277 kts | 317° |
| 2026-05-06 10:31 | 57.80335 | 83.74185 | 20892 ft | 278 kts | 317° |
| 2026-05-06 10:32 | 57.81848 | 83.71887 | 20935 ft | 278 kts | 317° |
| 2026-05-06 10:32 | 57.83337 | 83.69620 | 20980 ft | 278 kts | 317° |
| 2026-05-06 10:32 | 57.84850 | 83.67325 | 21027 ft | 278 kts | 317° |
| 2026-05-06 10:32 | 57.86343 | 83.65052 | 21081 ft | 278 kts | 317° |
| 2026-05-06 10:33 | 57.87836 | 83.62774 | 21117 ft | 278 kts | 317° |
| 2026-05-06 10:33 | 57.89353 | 83.60458 | 21150 ft | 278 kts | 317° |
| 2026-05-06 10:33 | 57.90850 | 83.58173 | 21204 ft | 279 kts | 317° |
| 2026-05-06 10:33 | 57.92366 | 83.55855 | 21250 ft | 279 kts | 317° |
| 2026-05-06 10:34 | 57.93850 | 83.53583 | 21303 ft | 278 kts | 317° |
| 2026-05-06 10:34 | 57.95364 | 83.51264 | 21329 ft | 279 kts | 316° |
| 2026-05-06 10:34 | 57.96871 | 83.48949 | 21366 ft | 279 kts | 316° |
| 2026-05-06 10:34 | 57.98363 | 83.46654 | 21404 ft | 279 kts | 316° |
| 2026-05-06 10:35 | 57.99862 | 83.44351 | 21446 ft | 279 kts | 316° |
| 2026-05-06 10:35 | 58.01369 | 83.42038 | 21480 ft | 279 kts | 317° |
| 2026-05-06 10:35 | 58.02874 | 83.39710 | 21507 ft | 279 kts | 317° |
| 2026-05-06 10:35 | 58.04364 | 83.37416 | 21541 ft | 279 kts | 317° |
| 2026-05-06 10:36 | 58.05864 | 83.35101 | 21574 ft | 279 kts | 317° |
| 2026-05-06 10:36 | 58.07376 | 83.32763 | 21607 ft | 279 kts | 317° |
| 2026-05-06 10:36 | 58.08885 | 83.30423 | 21644 ft | 279 kts | 317° |
| 2026-05-06 10:36 | 58.10366 | 83.28129 | 21671 ft | 279 kts | 317° |
| 2026-05-06 10:37 | 58.11879 | 83.25780 | 21691 ft | 279 kts | 317° |
| 2026-05-06 10:37 | 58.13365 | 83.23470 | 21730 ft | 279 kts | 317° |
| 2026-05-06 10:37 | 58.14871 | 83.21132 | 21761 ft | 279 kts | 317° |
| 2026-05-06 10:37 | 58.16376 | 83.18792 | 21797 ft | 279 kts | 317° |
| 2026-05-06 10:38 | 58.17862 | 83.16471 | 21823 ft | 279 kts | 317° |
| 2026-05-06 10:38 | 58.19368 | 83.14118 | 21855 ft | 278 kts | 317° |
| 2026-05-06 10:38 | 58.20856 | 83.11794 | 21880 ft | 279 kts | 317° |
| 2026-05-06 10:38 | 58.22362 | 83.09440 | 21916 ft | 279 kts | 317° |
| 2026-05-06 10:39 | 58.23851 | 83.07113 | 21944 ft | 279 kts | 317° |
| 2026-05-06 10:39 | 58.24846 | 83.05561 | 21961 ft | 279 kts | 317° |
| 2026-05-06 10:39 | 58.26838 | 83.02428 | 21991 ft | 279 kts | 317° |
| 2026-05-06 10:39 | 58.27834 | 83.00866 | 22005 ft | 279 kts | 317° |
| 2026-05-06 10:40 | 58.29823 | 82.97737 | 22031 ft | 279 kts | 317° |
| 2026-05-06 10:40 | 58.30818 | 82.96167 | 22049 ft | 278 kts | 317° |
| 2026-05-06 10:40 | 58.32316 | 82.93800 | 22076 ft | 278 kts | 317° |
| 2026-05-06 10:40 | 58.33754 | 82.91376 | 22163 ft | 278 kts | 313° |
| 2026-05-06 10:41 | 58.35139 | 82.88676 | 21981 ft | 290 kts | 310° |
| 2026-05-06 10:41 | 58.36546 | 82.85754 | 21625 ft | 306 kts | 310° |
| 2026-05-06 10:41 | 58.38002 | 82.82728 | 21235 ft | 319 kts | 310° |
| 2026-05-06 10:41 | 58.39547 | 82.79623 | 20833 ft | 325 kts | 312° |
| 2026-05-06 10:42 | 58.41123 | 82.76489 | 20424 ft | 328 kts | 312° |
| 2026-05-06 10:42 | 58.42695 | 82.73364 | 20044 ft | 324 kts | 312° |
| 2026-05-06 10:42 | 58.44211 | 82.70333 | 19960 ft | 314 kts | 312° |
| 2026-05-06 10:42 | 58.45708 | 82.67343 | 19915 ft | 308 kts | 312° |
| 2026-05-06 10:43 | 58.47171 | 82.64411 | 19890 ft | 303 kts | 312° |
| 2026-05-06 10:43 | 58.48620 | 82.61516 | 19877 ft | 299 kts | 312° |
| 2026-05-06 10:43 | 58.50048 | 82.58646 | 19883 ft | 296 kts | 312° |
| 2026-05-06 10:44 | 58.52856 | 82.53004 | 19883 ft | 290 kts | 312° |
| 2026-05-06 10:44 | 58.54245 | 82.50211 | 19888 ft | 288 kts | 312° |
| 2026-05-06 10:44 | 58.55609 | 82.47459 | 19888 ft | 287 kts | 312° |
| 2026-05-06 10:44 | 58.56985 | 82.44678 | 19885 ft | 286 kts | 311° |
| 2026-05-06 10:45 | 58.58340 | 82.41942 | 19885 ft | 285 kts | 311° |
| 2026-05-06 10:45 | 58.59704 | 82.39182 | 19888 ft | 284 kts | 311° |
| 2026-05-06 10:45 | 58.61063 | 82.36429 | 19885 ft | 284 kts | 312° |
| 2026-05-06 10:45 | 58.62409 | 82.33705 | 19875 ft | 283 kts | 311° |
| 2026-05-06 10:46 | 58.63763 | 82.30950 | 19861 ft | 284 kts | 311° |
| 2026-05-06 10:46 | 58.65124 | 82.28184 | 19855 ft | 283 kts | 311° |
| 2026-05-06 10:46 | 58.66481 | 82.25418 | 19853 ft | 283 kts | 311° |
| 2026-05-06 10:46 | 58.67827 | 82.22678 | 19851 ft | 283 kts | 311° |
| 2026-05-06 10:47 | 58.69178 | 82.19920 | 19853 ft | 283 kts | 312° |
| 2026-05-06 10:47 | 58.70515 | 82.17195 | 19850 ft | 283 kts | 311° |
| 2026-05-06 10:47 | 58.71862 | 82.14434 | 19850 ft | 282 kts | 311° |
| 2026-05-06 10:47 | 58.73210 | 82.11678 | 19851 ft | 282 kts | 311° |
| 2026-05-06 10:48 | 58.74542 | 82.08943 | 19850 ft | 282 kts | 311° |
| 2026-05-06 10:48 | 58.75893 | 82.06172 | 19850 ft | 282 kts | 311° |
| 2026-05-06 10:48 | 58.77224 | 82.03433 | 19851 ft | 281 kts | 311° |
| 2026-05-06 10:48 | 58.78569 | 82.00665 | 19852 ft | 281 kts | 311° |
| 2026-05-06 10:49 | 58.79911 | 81.97900 | 19852 ft | 281 kts | 311° |
| 2026-05-06 10:49 | 58.81241 | 81.95162 | 19851 ft | 281 kts | 312° |
| 2026-05-06 10:49 | 58.82579 | 81.92395 | 19850 ft | 281 kts | 312° |
| 2026-05-06 10:49 | 58.83902 | 81.89659 | 19853 ft | 281 kts | 312° |
| 2026-05-06 10:50 | 58.85240 | 81.86891 | 19851 ft | 281 kts | 312° |
| 2026-05-06 10:50 | 58.86574 | 81.84124 | 19851 ft | 280 kts | 312° |
| 2026-05-06 10:50 | 58.87893 | 81.81388 | 19851 ft | 280 kts | 311° |
| 2026-05-06 10:50 | 58.89221 | 81.78622 | 19851 ft | 280 kts | 312° |
| 2026-05-06 10:51 | 58.90557 | 81.75849 | 19850 ft | 280 kts | 312° |
| 2026-05-06 10:51 | 58.91865 | 81.73127 | 19850 ft | 280 kts | 312° |
| 2026-05-06 10:51 | 58.93192 | 81.70353 | 19850 ft | 280 kts | 311° |
| 2026-05-06 10:51 | 58.94522 | 81.67580 | 19851 ft | 280 kts | 312° |
| 2026-05-06 10:52 | 58.95831 | 81.64840 | 19850 ft | 279 kts | 312° |
| 2026-05-06 10:52 | 58.97160 | 81.62063 | 19851 ft | 279 kts | 312° |
| 2026-05-06 10:52 | 58.98474 | 81.59309 | 19849 ft | 279 kts | 312° |
| 2026-05-06 10:52 | 58.99792 | 81.56538 | 19850 ft | 279 kts | 312° |
| 2026-05-06 10:53 | 59.01115 | 81.53765 | 19850 ft | 279 kts | 312° |
| 2026-05-06 10:53 | 59.02419 | 81.51020 | 19851 ft | 279 kts | 312° |
| 2026-05-06 10:53 | 59.03737 | 81.48245 | 19851 ft | 279 kts | 312° |
| 2026-05-06 10:53 | 59.05057 | 81.45457 | 19851 ft | 278 kts | 312° |
| 2026-05-06 10:54 | 59.06357 | 81.42717 | 19853 ft | 278 kts | 312° |
| 2026-05-06 10:54 | 59.07671 | 81.39939 | 19851 ft | 278 kts | 312° |
| 2026-05-06 10:54 | 59.08972 | 81.37182 | 19850 ft | 278 kts | 312° |
| 2026-05-06 10:54 | 59.10284 | 81.34402 | 19849 ft | 278 kts | 312° |
| 2026-05-06 10:55 | 59.11601 | 81.31616 | 19850 ft | 278 kts | 312° |
| 2026-05-06 10:55 | 59.12897 | 81.28859 | 19855 ft | 278 kts | 312° |
| 2026-05-06 10:55 | 59.14213 | 81.26066 | 19855 ft | 279 kts | 312° |
| 2026-05-06 10:55 | 59.15525 | 81.23269 | 19849 ft | 279 kts | 311° |
| 2026-05-06 10:56 | 59.16825 | 81.20503 | 19850 ft | 278 kts | 312° |
| 2026-05-06 10:56 | 59.18135 | 81.17705 | 19844 ft | 278 kts | 311° |
| 2026-05-06 10:56 | 59.19441 | 81.14912 | 19843 ft | 278 kts | 312° |
| 2026-05-06 10:56 | 59.20738 | 81.12142 | 19844 ft | 278 kts | 311° |
| 2026-05-06 10:57 | 59.22047 | 81.09336 | 19841 ft | 278 kts | 311° |
| 2026-05-06 10:57 | 59.23348 | 81.06544 | 19841 ft | 278 kts | 312° |
| 2026-05-06 10:57 | 59.24653 | 81.03743 | 19841 ft | 278 kts | 311° |
| 2026-05-06 10:57 | 59.25940 | 81.00974 | 19842 ft | 277 kts | 311° |
| 2026-05-06 10:58 | 59.27239 | 80.98183 | 19841 ft | 277 kts | 311° |
| 2026-05-06 10:58 | 59.28542 | 80.95379 | 19841 ft | 277 kts | 311° |
| 2026-05-06 10:58 | 59.29837 | 80.92577 | 19841 ft | 276 kts | 311° |
| 2026-05-06 10:58 | 59.31113 | 80.89816 | 19842 ft | 276 kts | 311° |
| 2026-05-06 10:59 | 59.32415 | 80.87011 | 19842 ft | 276 kts | 311° |
| 2026-05-06 10:59 | 59.33695 | 80.84238 | 19841 ft | 276 kts | 311° |
| 2026-05-06 10:59 | 59.34984 | 80.81436 | 19843 ft | 276 kts | 311° |
| 2026-05-06 10:59 | 59.36266 | 80.78656 | 19842 ft | 276 kts | 311° |
| 2026-05-06 11:00 | 59.37549 | 80.75866 | 19841 ft | 276 kts | 311° |
| 2026-05-06 11:00 | 59.38839 | 80.73057 | 19840 ft | 276 kts | 311° |
| 2026-05-06 11:00 | 59.40109 | 80.70283 | 19840 ft | 275 kts | 311° |
| 2026-05-06 11:00 | 59.41396 | 80.67491 | 19841 ft | 275 kts | 311° |
| 2026-05-06 11:01 | 59.42684 | 80.64682 | 19841 ft | 276 kts | 311° |
| 2026-05-06 11:01 | 59.43955 | 80.61900 | 19841 ft | 275 kts | 311° |
| 2026-05-06 11:01 | 59.45238 | 80.59098 | 19842 ft | 275 kts | 311° |
| 2026-05-06 11:01 | 59.46519 | 80.56294 | 19842 ft | 275 kts | 311° |
| 2026-05-06 11:02 | 59.47802 | 80.53478 | 19843 ft | 275 kts | 311° |
| 2026-05-06 11:02 | 59.49073 | 80.50686 | 19841 ft | 275 kts | 311° |
| 2026-05-06 11:02 | 59.50350 | 80.47877 | 19842 ft | 275 kts | 311° |
| 2026-05-06 11:02 | 59.51614 | 80.45106 | 19841 ft | 275 kts | 311° |
| 2026-05-06 11:03 | 59.52892 | 80.42294 | 19841 ft | 274 kts | 311° |
| 2026-05-06 11:03 | 59.54167 | 80.39476 | 19841 ft | 273 kts | 311° |
| 2026-05-06 11:03 | 59.55416 | 80.36715 | 19840 ft | 273 kts | 311° |
| 2026-05-06 11:03 | 59.56687 | 80.33908 | 19840 ft | 273 kts | 311° |
| 2026-05-06 11:04 | 59.57956 | 80.31095 | 19840 ft | 273 kts | 311° |
| 2026-05-06 11:04 | 59.59206 | 80.28326 | 19841 ft | 273 kts | 311° |
| 2026-05-06 11:04 | 59.60475 | 80.25519 | 19841 ft | 272 kts | 311° |
| 2026-05-06 11:04 | 59.61730 | 80.22725 | 19843 ft | 272 kts | 310° |
| 2026-05-06 11:05 | 59.62972 | 80.19956 | 19843 ft | 272 kts | 310° |
| 2026-05-06 11:05 | 59.64229 | 80.17158 | 19842 ft | 272 kts | 310° |
| 2026-05-06 11:05 | 59.65487 | 80.14349 | 19841 ft | 272 kts | 311° |
| 2026-05-06 11:05 | 59.66746 | 80.11548 | 19843 ft | 272 kts | 310° |
| 2026-05-06 11:06 | 59.67998 | 80.08751 | 19841 ft | 272 kts | 310° |
| 2026-05-06 11:06 | 59.69237 | 80.05972 | 19840 ft | 271 kts | 310° |
| 2026-05-06 11:06 | 59.70496 | 80.03154 | 19840 ft | 272 kts | 310° |
| 2026-05-06 11:06 | 59.71749 | 80.00342 | 19842 ft | 272 kts | 310° |
| 2026-05-06 11:07 | 59.72989 | 79.97549 | 19841 ft | 271 kts | 310° |
| 2026-05-06 11:07 | 59.74247 | 79.94722 | 19841 ft | 272 kts | 310° |
| 2026-05-06 11:07 | 59.75490 | 79.91923 | 19842 ft | 271 kts | 310° |
| 2026-05-06 11:07 | 59.76727 | 79.89130 | 19842 ft | 271 kts | 310° |
| 2026-05-06 11:08 | 59.77975 | 79.86311 | 19841 ft | 271 kts | 310° |
| 2026-05-06 11:08 | 59.79230 | 79.83481 | 19842 ft | 271 kts | 310° |
| 2026-05-06 11:08 | 59.80457 | 79.80706 | 19836 ft | 271 kts | 310° |
| 2026-05-06 11:08 | 59.81705 | 79.77873 | 19833 ft | 271 kts | 310° |
| 2026-05-06 11:09 | 59.82938 | 79.75078 | 19837 ft | 271 kts | 310° |
| 2026-05-06 11:09 | 59.84184 | 79.72250 | 19840 ft | 271 kts | 310° |
| 2026-05-06 11:09 | 59.85417 | 79.69444 | 19841 ft | 271 kts | 310° |
| 2026-05-06 11:09 | 59.86657 | 79.66616 | 19841 ft | 271 kts | 310° |
| 2026-05-06 11:10 | 59.87903 | 79.63774 | 19844 ft | 271 kts | 310° |
| 2026-05-06 11:10 | 59.89127 | 79.60979 | 19840 ft | 270 kts | 310° |
| 2026-05-06 11:10 | 59.90367 | 79.58148 | 19845 ft | 270 kts | 310° |
| 2026-05-06 11:10 | 59.91616 | 79.55302 | 19840 ft | 271 kts | 310° |
| 2026-05-06 11:11 | 59.92843 | 79.52487 | 19841 ft | 271 kts | 310° |
| 2026-05-06 11:11 | 59.94086 | 79.49628 | 19841 ft | 271 kts | 310° |
| 2026-05-06 11:11 | 59.95310 | 79.46821 | 19840 ft | 271 kts | 310° |
| 2026-05-06 11:11 | 59.96546 | 79.43973 | 19840 ft | 271 kts | 310° |
| 2026-05-06 11:12 | 59.97783 | 79.41125 | 19842 ft | 271 kts | 310° |
| 2026-05-06 11:12 | 59.99008 | 79.38303 | 19843 ft | 271 kts | 310° |
| 2026-05-06 11:12 | 60.00249 | 79.35445 | 19841 ft | 271 kts | 310° |
| 2026-05-06 11:12 | 60.01484 | 79.32597 | 19841 ft | 271 kts | 310° |
| 2026-05-06 11:13 | 60.02721 | 79.29740 | 19839 ft | 270 kts | 309° |
| 2026-05-06 11:13 | 60.03937 | 79.26916 | 19842 ft | 270 kts | 309° |
| 2026-05-06 11:13 | 60.05164 | 79.24068 | 19841 ft | 269 kts | 309° |
| 2026-05-06 11:13 | 60.06388 | 79.21227 | 19841 ft | 269 kts | 309° |
| 2026-05-06 11:14 | 60.07610 | 79.18379 | 19839 ft | 269 kts | 309° |
| 2026-05-06 11:14 | 60.08825 | 79.15545 | 19842 ft | 268 kts | 309° |
| 2026-05-06 11:14 | 60.10026 | 79.12751 | 19843 ft | 268 kts | 309° |
| 2026-05-06 11:14 | 60.11242 | 79.09913 | 19843 ft | 268 kts | 309° |
| 2026-05-06 11:15 | 60.12457 | 79.07073 | 19842 ft | 267 kts | 309° |
| 2026-05-06 11:15 | 60.13674 | 79.04227 | 19724 ft | 271 kts | 309° |
| 2026-05-06 11:15 | 60.14937 | 79.01269 | 19291 ft | 285 kts | 309° |
| 2026-05-06 11:15 | 60.16232 | 78.98222 | 18840 ft | 295 kts | 309° |
| 2026-05-06 11:16 | 60.17589 | 78.95037 | 18365 ft | 303 kts | 309° |
| 2026-05-06 11:16 | 60.18947 | 78.91867 | 18032 ft | 292 kts | 310° |
| 2026-05-06 11:16 | 60.20275 | 78.88784 | 17722 ft | 291 kts | 310° |
| 2026-05-06 11:16 | 60.21580 | 78.85734 | 17422 ft | 291 kts | 309° |
| 2026-05-06 11:17 | 60.22893 | 78.82637 | 17114 ft | 291 kts | 309° |
| 2026-05-06 11:17 | 60.24204 | 78.79520 | 16820 ft | 291 kts | 309° |
| 2026-05-06 11:17 | 60.25520 | 78.76408 | 16522 ft | 290 kts | 309° |
| 2026-05-06 11:17 | 60.26824 | 78.73331 | 16176 ft | 288 kts | 309° |
| 2026-05-06 11:18 | 60.28113 | 78.70280 | 15643 ft | 289 kts | 309° |
| 2026-05-06 11:18 | 60.29420 | 78.67165 | 15093 ft | 290 kts | 309° |
| 2026-05-06 11:18 | 60.30722 | 78.64056 | 14561 ft | 290 kts | 309° |
| 2026-05-06 11:18 | 60.32020 | 78.60960 | 14060 ft | 285 kts | 309° |
| 2026-05-06 11:19 | 60.33296 | 78.57916 | 13529 ft | 283 kts | 309° |
| 2026-05-06 11:19 | 60.34546 | 78.54929 | 12992 ft | 281 kts | 309° |
| 2026-05-06 11:19 | 60.35804 | 78.51914 | 12455 ft | 279 kts | 308° |
| 2026-05-06 11:19 | 60.37051 | 78.48921 | 11929 ft | 277 kts | 308° |
| 2026-05-06 11:20 | 60.38293 | 78.45944 | 11399 ft | 276 kts | 308° |
| 2026-05-06 11:20 | 60.39526 | 78.42980 | 10872 ft | 274 kts | 308° |
| 2026-05-06 11:20 | 60.40734 | 78.40077 | 10356 ft | 273 kts | 308° |
| 2026-05-06 11:20 | 60.41957 | 78.37130 | 9836 ft | 272 kts | 308° |
| 2026-05-06 11:21 | 60.43137 | 78.34217 | 9547 ft | 263 kts | 307° |
| 2026-05-06 11:21 | 60.44253 | 78.31303 | 9186 ft | 259 kts | 306° |
| 2026-05-06 11:21 | 60.45342 | 78.28429 | 8834 ft | 256 kts | 305° |
| 2026-05-06 11:21 | 60.46411 | 78.25604 | 8497 ft | 253 kts | 306° |
| 2026-05-06 11:22 | 60.47482 | 78.22776 | 8149 ft | 252 kts | 305° |
| 2026-05-06 11:22 | 60.48527 | 78.19997 | 7814 ft | 249 kts | 305° |
| 2026-05-06 11:22 | 60.49583 | 78.17207 | 7489 ft | 247 kts | 305° |
| 2026-05-06 11:22 | 60.50630 | 78.14433 | 7173 ft | 246 kts | 305° |
| 2026-05-06 11:23 | 60.51666 | 78.11676 | 6879 ft | 245 kts | 305° |
| 2026-05-06 11:23 | 60.52688 | 78.08964 | 6560 ft | 244 kts | 305° |
| 2026-05-06 11:23 | 60.53718 | 78.06236 | 6237 ft | 241 kts | 305° |
| 2026-05-06 11:23 | 60.54736 | 78.03525 | 5928 ft | 239 kts | 305° |
| 2026-05-06 11:24 | 60.55735 | 78.00860 | 5620 ft | 237 kts | 305° |
| 2026-05-06 11:24 | 60.56734 | 77.98182 | 5309 ft | 235 kts | 304° |
| 2026-05-06 11:24 | 60.57337 | 77.95225 | 5003 ft | 227 kts | 273° |
| 2026-05-06 11:24 | 60.57235 | 77.92041 | 4699 ft | 225 kts | 260° |
| 2026-05-06 11:25 | 60.56887 | 77.88964 | 4400 ft | 224 kts | 253° |
| 2026-05-06 11:25 | 60.56422 | 77.85932 | 4088 ft | 223 kts | 251° |
| 2026-05-06 11:25 | 60.55944 | 77.82963 | 3792 ft | 223 kts | 251° |
| 2026-05-06 11:25 | 60.55537 | 77.79920 | 3437 ft | 221 kts | 265° |
| 2026-05-06 11:26 | 60.55948 | 77.76973 | 3098 ft | 225 kts | 303° |
| 2026-05-06 11:26 | 60.57152 | 77.74915 | 2775 ft | 228 kts | 327° |
| 2026-05-06 11:26 | 60.58583 | 77.73471 | 2454 ft | 231 kts | 336° |
| 2026-05-06 11:26 | 60.60107 | 77.72413 | 2108 ft | 234 kts | 341° |
| 2026-05-06 11:27 | 60.61656 | 77.71525 | 1743 ft | 221 kts | 343° |
| 2026-05-06 11:27 | 60.62600 | 77.71011 | 1636 ft | 201 kts | 343° |
| 2026-05-06 11:27 | 60.64225 | 77.70118 | 1557 ft | 162 kts | 342° |
| 2026-05-06 11:27 | 60.65242 | 77.69571 | 1466 ft | 138 kts | 344° |
| 2026-05-06 11:28 | 60.66132 | 77.69068 | 1225 ft | 128 kts | 339° |
| 2026-05-06 11:28 | 60.66702 | 77.68667 | 1091 ft | 131 kts | 337° |
| 2026-05-06 11:28 | 60.67851 | 77.67920 | 820 ft | 132 kts | 341° |
| 2026-05-06 11:28 | 60.68740 | 77.67388 | 546 ft | 134 kts | 341° |
| 2026-05-06 11:29 | 60.69324 | 77.67021 | 404 ft | 130 kts | 341° |
| 2026-05-06 11:29 | 60.70179 | 77.66499 | 196 ft | 126 kts | 342° |
| 2026-05-06 11:29 | 60.70930 | 77.66041 | 172 ft | 87 kts | 342° |
| 2026-05-06 11:29 | 60.71260 | 77.65842 | 170 ft | 38 kts | 346° |
| 2026-05-06 11:30 | 60.71456 | 77.65714 | 171 ft | 24 kts | 341° |
| 2026-05-06 11:30 | 60.71568 | 77.65636 | 172 ft | 8 kts | 321° |
| 2026-05-06 11:30 | 60.71576 | 77.65531 | 172 ft | 8 kts | 252° |
| 2026-05-06 11:30 | 60.71559 | 77.65418 | 172 ft | 8 kts | 253° |
| 2026-05-06 11:31 | 60.71543 | 77.65306 | 172 ft | 8 kts | 253° |
| 2026-05-06 11:31 | 60.71572 | 77.65227 | 172 ft | 14 kts | 341° |
| 2026-05-06 11:31 | 60.71664 | 77.65170 | 172 ft | 4 kts | 342° |
| 2026-05-06 11:31 | 60.71700 | 77.65141 | 172 ft | 5 kts | 320° |
| 2026-05-06 11:32 | 60.71705 | 77.65072 | 172 ft | 5 kts | 298° |
| 2026-05-06 11:32 | 60.71723 | 77.65068 | 172 ft | 3 kts | 28° |
| 2026-05-06 11:32 | 60.71726 | 77.65073 | 172 ft | 0 kts | 31° |